Terminal Aerodrome Forecast
Issued by NWS Bismarck, ND

Home | Current Version | Previous Version | Text Only | Print | Product List | Glossary On
Versions: 1 2 3 4 5 6 7 8 9 10 11 12 13 14 15 16
000
FTUS43 KBIS 311100
TAFBIS
TAF
KBIS 311120Z 3112/0112 04009KT P6SM OVC008
     FM312000 06016G24KT 2SM -SN OVC012
     FM010600 36011KT P6SM OVC030=

USA.gov is the U.S. government's official web portal to all federal, state and local government web resources and services.